createdAt,value
2018-12-16T00:01:46.996Z,20.10
2018-12-16T00:04:16.382Z,20.10
2018-12-16T00:06:45.704Z,20.10
2018-12-16T00:09:15.079Z,20.10
2018-12-16T00:11:44.420Z,20.10
2018-12-16T00:14:13.708Z,20.00
2018-12-16T00:16:43.146Z,20.10
2018-12-16T00:19:12.469Z,20.00
2018-12-16T00:21:41.783Z,20.00
2018-12-16T00:24:11.107Z,20.00
2018-12-16T00:26:51.226Z,20.00
2018-12-16T00:29:21.548Z,20.00
2018-12-16T00:31:51.004Z,20.00
2018-12-16T00:34:20.270Z,20.00
2018-12-16T00:36:49.631Z,20.00
2018-12-16T00:39:19.012Z,20.00
2018-12-16T00:41:48.296Z,20.00
2018-12-16T00:44:17.653Z,20.00
2018-12-16T00:46:46.966Z,19.90
2018-12-16T00:49:16.357Z,19.90
2018-12-16T00:51:45.730Z,19.90
2018-12-16T00:54:15.056Z,19.90
2018-12-16T00:56:44.370Z,19.90
2018-12-16T00:59:13.857Z,19.90
2018-12-16T01:01:43.142Z,19.90
2018-12-16T01:04:12.563Z,19.90
2018-12-16T01:06:41.851Z,19.90
2018-12-16T01:09:11.174Z,19.90
2018-12-16T01:11:40.489Z,19.90
2018-12-16T01:14:09.778Z,19.90
2018-12-16T01:16:39.167Z,19.90
2018-12-16T01:19:08.498Z,19.90
2018-12-16T01:21:37.878Z,19.80
2018-12-16T01:24:07.271Z,19.80
2018-12-16T01:26:36.586Z,19.80
2018-12-16T01:29:05.982Z,19.80
2018-12-16T01:31:35.302Z,19.80
2018-12-16T01:34:04.628Z,19.80
2018-12-16T01:36:34.041Z,19.80
2018-12-16T01:39:03.631Z,19.80
2018-12-16T01:41:32.966Z,19.80
2018-12-16T01:44:02.307Z,19.80
2018-12-16T01:46:31.698Z,19.80
2018-12-16T01:49:01.113Z,19.80
2018-12-16T01:51:30.477Z,19.80
2018-12-16T01:53:59.825Z,19.70
2018-12-16T01:56:29.167Z,19.70
2018-12-16T01:58:58.541Z,19.70
2018-12-16T02:01:27.995Z,19.70
2018-12-16T02:03:57.308Z,19.70
2018-12-16T02:06:26.674Z,19.70
2018-12-16T02:08:56.112Z,19.70
2018-12-16T02:11:25.438Z,19.70
2018-12-16T02:13:54.783Z,19.70
2018-12-16T02:16:24.166Z,19.70
2018-12-16T02:18:53.606Z,19.70
2018-12-16T02:21:22.954Z,19.70
2018-12-16T02:23:53.047Z,19.60
2018-12-16T02:26:22.358Z,19.60
2018-12-16T02:28:51.755Z,19.60
2018-12-16T02:31:21.071Z,19.60
2018-12-16T02:33:50.506Z,19.60
2018-12-16T02:36:19.775Z,19.60
2018-12-16T02:38:49.205Z,19.60
2018-12-16T02:41:18.639Z,19.60
2018-12-16T02:43:47.947Z,19.60
2018-12-16T02:46:17.330Z,19.60
2018-12-16T02:48:46.645Z,19.60
2018-12-16T02:51:15.806Z,19.60
2018-12-16T02:53:45.014Z,19.50
2018-12-16T02:56:14.351Z,19.50
2018-12-16T02:58:43.745Z,19.50
2018-12-16T03:01:13.060Z,19.50
2018-12-16T03:03:42.368Z,19.50
2018-12-16T03:06:11.666Z,19.50
2018-12-16T03:08:41.143Z,19.50
2018-12-16T03:11:10.442Z,19.50
2018-12-16T03:13:39.816Z,19.50
2018-12-16T03:16:09.179Z,19.50
2018-12-16T03:18:38.623Z,19.50
2018-12-16T03:21:08.058Z,19.50
2018-12-16T03:23:37.379Z,19.40
2018-12-16T03:26:06.774Z,19.50
2018-12-16T03:28:36.235Z,19.40
2018-12-16T03:31:05.727Z,19.40
2018-12-16T03:33:35.137Z,19.40
2018-12-16T03:36:04.444Z,19.40
2018-12-16T03:38:34.154Z,19.40
2018-12-16T03:41:03.514Z,19.40
2018-12-16T03:43:32.917Z,19.40
2018-12-16T03:46:02.264Z,19.40
2018-12-16T03:48:31.702Z,19.40
2018-12-16T03:51:01.086Z,19.40
2018-12-16T03:53:30.473Z,19.40
2018-12-16T03:55:59.786Z,19.40
2018-12-16T03:58:29.187Z,19.30
2018-12-16T04:00:58.435Z,19.30
2018-12-16T04:03:27.737Z,19.30
2018-12-16T04:05:57.039Z,19.40
2018-12-16T04:08:26.418Z,19.30
2018-12-16T04:10:55.987Z,19.30
2018-12-16T04:13:25.368Z,19.30
2018-12-16T04:15:54.721Z,19.30
2018-12-16T04:18:24.218Z,19.30
2018-12-16T04:20:53.543Z,19.30
2018-12-16T04:23:27.425Z,19.30
2018-12-16T04:25:54.285Z,19.30
2018-12-16T04:28:23.871Z,19.30
2018-12-16T04:30:53.265Z,19.30
2018-12-16T04:33:22.554Z,19.30
2018-12-16T04:35:51.973Z,19.30
2018-12-16T04:38:21.292Z,19.30
2018-12-16T04:40:50.604Z,19.20
2018-12-16T04:43:20.474Z,19.20
2018-12-16T04:45:49.773Z,19.20
2018-12-16T04:48:19.168Z,19.20
2018-12-16T04:50:48.552Z,19.20
2018-12-16T04:53:17.869Z,19.20
2018-12-16T04:55:47.192Z,19.20
2018-12-16T04:58:16.579Z,19.20
2018-12-16T05:00:45.892Z,19.20
2018-12-16T05:03:15.242Z,19.20
2018-12-16T05:05:44.491Z,19.20
2018-12-16T05:08:13.818Z,19.20
2018-12-16T05:10:43.126Z,19.20
2018-12-16T05:13:12.792Z,19.20
2018-12-16T05:15:42.121Z,19.20
2018-12-16T05:18:11.472Z,19.20
2018-12-16T05:20:40.806Z,19.20
2018-12-16T05:23:10.235Z,19.10
2018-12-16T05:25:39.598Z,19.10
2018-12-16T05:28:09.023Z,19.10
2018-12-16T05:30:38.401Z,19.10
2018-12-16T05:33:07.638Z,19.10
2018-12-16T05:35:36.926Z,19.10
2018-12-16T05:38:06.203Z,19.10
2018-12-16T05:40:35.518Z,19.10
2018-12-16T05:43:04.744Z,19.10
2018-12-16T05:45:34.015Z,19.10
2018-12-16T05:48:03.514Z,19.10
2018-12-16T05:50:32.924Z,19.10
2018-12-16T05:53:02.246Z,19.00
2018-12-16T05:55:31.444Z,19.00
2018-12-16T05:58:00.623Z,19.00
2018-12-16T06:00:29.823Z,19.00
2018-12-16T06:02:59.066Z,19.00
2018-12-16T06:05:28.227Z,19.00
2018-12-16T06:07:57.478Z,19.00
2018-12-16T06:10:26.738Z,19.00
2018-12-16T06:12:55.950Z,19.00
2018-12-16T06:15:25.277Z,19.00
2018-12-16T06:17:54.774Z,19.00
2018-12-16T06:20:24.220Z,18.90
2018-12-16T06:22:53.630Z,19.00
2018-12-16T06:25:23.018Z,19.00
2018-12-16T06:27:52.533Z,18.90
2018-12-16T06:30:22.843Z,19.00
2018-12-16T06:32:52.220Z,18.90
2018-12-16T06:35:21.643Z,18.90
2018-12-16T06:37:51.187Z,18.90
2018-12-16T06:40:20.579Z,18.90
2018-12-16T06:42:50.061Z,18.90
2018-12-16T06:45:19.469Z,18.90
2018-12-16T06:47:48.996Z,18.90
2018-12-16T06:50:18.432Z,18.90
2018-12-16T06:52:47.996Z,18.90
2018-12-16T06:55:17.462Z,18.90
2018-12-16T06:57:46.958Z,18.90
2018-12-16T07:00:16.549Z,18.90
2018-12-16T07:02:48.282Z,18.90
2018-12-16T07:05:17.881Z,18.90
2018-12-16T07:07:47.386Z,18.90
2018-12-16T07:10:16.947Z,18.90
2018-12-16T07:12:46.572Z,18.90
2018-12-16T07:15:16.158Z,18.90
2018-12-16T07:17:45.857Z,18.90
2018-12-16T07:20:15.427Z,18.90
2018-12-16T07:22:46.253Z,19.00
2018-12-16T07:25:16.962Z,19.00
2018-12-16T07:27:46.774Z,19.00
2018-12-16T07:30:16.527Z,19.10
2018-12-16T07:32:47.025Z,19.20
2018-12-16T07:35:16.579Z,19.20
2018-12-16T07:37:46.326Z,19.30
2018-12-16T07:40:15.988Z,19.30
2018-12-16T07:42:45.625Z,19.40
2018-12-16T07:45:15.449Z,19.40
2018-12-16T07:47:46.323Z,19.50
2018-12-16T07:50:16.128Z,19.50
2018-12-16T07:52:45.732Z,19.60
2018-12-16T07:55:15.461Z,19.60
2018-12-16T07:57:44.985Z,19.70
2018-12-16T08:00:14.584Z,19.70
2018-12-16T08:02:44.163Z,19.70
2018-12-16T08:05:13.951Z,19.80
2018-12-16T08:07:43.832Z,19.90
2018-12-16T08:10:13.362Z,19.90
2018-12-16T08:12:43.003Z,19.90
2018-12-16T08:15:12.827Z,19.90
2018-12-16T08:17:42.784Z,20.00
2018-12-16T08:20:12.336Z,20.00
2018-12-16T08:22:41.859Z,20.00
2018-12-16T08:25:11.549Z,20.00
2018-12-16T08:27:41.234Z,20.10
2018-12-16T08:30:10.877Z,20.10
2018-12-16T08:32:40.987Z,20.10
2018-12-16T08:35:11.504Z,20.10
2018-12-16T08:37:41.399Z,20.10
2018-12-16T08:40:11.100Z,20.10
2018-12-16T08:42:40.852Z,20.10
2018-12-16T08:45:10.613Z,20.10
2018-12-16T08:47:40.345Z,20.20
2018-12-16T08:50:09.883Z,20.10
2018-12-16T08:52:40.103Z,20.20
2018-12-16T08:55:11.196Z,20.10
2018-12-16T08:57:41.090Z,20.20
2018-12-16T09:00:10.798Z,20.20
2018-12-16T09:02:41.625Z,20.20
2018-12-16T09:05:11.240Z,20.20
2018-12-16T09:07:40.913Z,20.20
2018-12-16T09:10:10.559Z,20.20
2018-12-16T09:12:40.259Z,20.20
2018-12-16T09:15:09.479Z,20.20
2018-12-16T09:17:38.717Z,20.20
2018-12-16T09:20:07.917Z,20.20
2018-12-16T09:22:37.199Z,20.20
2018-12-16T09:25:06.465Z,20.20
2018-12-16T09:27:35.779Z,20.20
2018-12-16T09:30:05.994Z,20.20
2018-12-16T09:32:35.692Z,20.20
2018-12-16T09:35:05.326Z,20.20
2018-12-16T09:37:35.315Z,20.20
2018-12-16T09:40:05.348Z,20.20
2018-12-16T09:42:35.289Z,20.10
2018-12-16T09:45:04.957Z,20.10
2018-12-16T09:47:35.208Z,20.10
2018-12-16T09:50:05.053Z,20.10
2018-12-16T09:52:34.766Z,20.10
2018-12-16T09:55:04.590Z,20.10
2018-12-16T09:57:34.356Z,20.00
2018-12-16T10:00:04.291Z,20.00
2018-12-16T10:02:34.038Z,20.00
2018-12-16T10:05:03.709Z,20.00
2018-12-16T10:07:33.302Z,20.10
2018-12-16T10:10:03.213Z,20.00
2018-12-16T10:12:32.766Z,20.10
2018-12-16T10:15:02.424Z,20.10
2018-12-16T10:17:32.050Z,20.10
2018-12-16T10:20:01.788Z,20.10
2018-12-16T10:22:31.530Z,20.10
2018-12-16T10:25:01.284Z,20.10
2018-12-16T10:27:31.071Z,20.20
2018-12-16T10:30:00.735Z,20.10
2018-12-16T10:32:30.486Z,20.20
2018-12-16T10:35:00.188Z,20.20
2018-12-16T10:37:29.952Z,20.20
2018-12-16T10:39:59.446Z,20.20
2018-12-16T10:42:29.055Z,20.20
2018-12-16T10:44:58.889Z,20.20
2018-12-16T10:47:28.500Z,20.20
2018-12-16T10:49:58.352Z,20.20
2018-12-16T10:52:28.091Z,20.30
2018-12-16T10:54:58.747Z,20.30
2018-12-16T10:57:29.018Z,20.30
2018-12-16T10:59:58.841Z,20.30
2018-12-16T11:02:29.554Z,20.30
2018-12-16T11:04:59.456Z,20.30
2018-12-16T11:07:29.309Z,20.30
2018-12-16T11:10:00.056Z,20.40
2018-12-16T11:12:30.101Z,20.30
2018-12-16T11:14:59.647Z,20.40
2018-12-16T11:17:29.332Z,20.40
2018-12-16T11:19:58.980Z,20.40
2018-12-16T11:22:28.778Z,20.40
2018-12-16T11:25:05.431Z,20.40
2018-12-16T11:27:30.696Z,20.40
2018-12-16T11:30:00.495Z,20.50
2018-12-16T11:32:30.346Z,20.50
2018-12-16T11:35:00.222Z,20.50
2018-12-16T11:37:29.910Z,20.50
2018-12-16T11:39:59.602Z,20.50
2018-12-16T11:42:29.272Z,20.60
2018-12-16T11:44:58.753Z,20.60
2018-12-16T11:47:28.590Z,20.60
2018-12-16T11:49:58.351Z,20.60
2018-12-16T11:52:28.075Z,20.60
2018-12-16T11:54:57.688Z,20.60
2018-12-16T11:57:27.746Z,20.60
2018-12-16T11:59:57.477Z,20.60
2018-12-16T12:02:32.813Z,20.70
2018-12-16T12:04:58.713Z,20.70
2018-12-16T12:07:28.673Z,20.70
2018-12-16T12:09:58.436Z,20.70
2018-12-16T12:12:28.027Z,20.70
2018-12-16T12:14:57.797Z,20.70
2018-12-16T12:17:27.902Z,20.70
2018-12-16T12:19:57.671Z,20.70
2018-12-16T12:22:27.308Z,20.70
2018-12-16T12:24:57.415Z,20.70
2018-12-16T12:27:27.042Z,20.70
2018-12-16T12:29:56.301Z,20.70
2018-12-16T12:32:25.547Z,20.70
2018-12-16T12:34:54.845Z,20.70
2018-12-16T12:37:24.462Z,20.80
2018-12-16T12:39:53.845Z,20.80
2018-12-16T12:42:23.093Z,20.80
2018-12-16T12:44:52.311Z,20.80
2018-12-16T12:47:21.633Z,20.80
2018-12-16T12:49:50.878Z,20.80
2018-12-16T12:52:20.159Z,20.80
2018-12-16T12:54:49.682Z,20.80
2018-12-16T12:57:20.440Z,20.90
2018-12-16T12:59:50.938Z,20.90
2018-12-16T13:02:21.675Z,20.90
2018-12-16T13:04:52.130Z,20.90
2018-12-16T13:07:22.678Z,20.90
2018-12-16T13:09:53.334Z,20.90
2018-12-16T13:12:23.987Z,20.90
2018-12-16T13:14:54.587Z,20.90
2018-12-16T13:17:25.215Z,21.00
2018-12-16T13:19:58.781Z,21.00
2018-12-16T13:22:29.362Z,21.00
2018-12-16T13:25:10.774Z,21.00
2018-12-16T13:27:41.094Z,21.00
2018-12-16T13:30:12.227Z,21.00
2018-12-16T13:32:42.460Z,21.00
2018-12-16T13:35:12.259Z,21.00
2018-12-16T13:37:41.972Z,21.00
2018-12-16T13:40:12.023Z,21.00
2018-12-16T13:42:41.749Z,21.00
2018-12-16T13:45:11.275Z,21.00
2018-12-16T13:47:41.134Z,21.00
2018-12-16T13:50:11.150Z,21.00
2018-12-16T13:52:40.907Z,21.00
2018-12-16T13:55:10.603Z,21.00
2018-12-16T13:57:40.782Z,21.00
2018-12-16T14:00:10.489Z,21.00
2018-12-16T14:02:40.838Z,21.00
2018-12-16T14:05:10.778Z,21.00
2018-12-16T14:07:42.670Z,21.00
2018-12-16T14:10:12.458Z,21.00
2018-12-16T14:12:42.098Z,21.00
2018-12-16T14:15:12.147Z,21.00
2018-12-16T14:17:41.999Z,21.00
2018-12-16T14:20:12.356Z,21.00
2018-12-16T14:22:42.027Z,21.00
2018-12-16T14:25:11.952Z,21.00
2018-12-16T14:27:41.623Z,21.00
2018-12-16T14:30:12.396Z,21.00
2018-12-16T14:32:42.059Z,21.00
2018-12-16T14:35:12.098Z,21.00
2018-12-16T14:37:41.856Z,21.00
2018-12-16T14:40:11.750Z,21.00
2018-12-16T14:42:41.520Z,21.00
2018-12-16T14:45:11.759Z,21.00
2018-12-16T14:47:41.286Z,21.00
2018-12-16T14:50:12.154Z,21.00
2018-12-16T14:52:41.789Z,21.00
2018-12-16T14:55:11.430Z,20.90
2018-12-16T14:57:41.206Z,20.90
2018-12-16T15:00:12.147Z,20.90
2018-12-16T15:02:41.690Z,20.90
2018-12-16T15:05:11.344Z,20.90
2018-12-16T15:07:41.169Z,20.90
2018-12-16T15:10:11.849Z,20.90
2018-12-16T15:12:41.504Z,20.90
2018-12-16T15:15:11.353Z,20.80
2018-12-16T15:17:42.914Z,20.80
2018-12-16T15:20:12.541Z,20.80
2018-12-16T15:22:42.382Z,20.80
2018-12-16T15:25:12.043Z,20.80
2018-12-16T15:27:41.902Z,20.80
2018-12-16T15:30:11.808Z,20.80
2018-12-16T15:32:41.651Z,20.80
2018-12-16T15:35:11.334Z,20.80
2018-12-16T15:37:41.116Z,20.70
2018-12-16T15:40:10.880Z,20.70
2018-12-16T15:42:40.642Z,20.70
2018-12-16T15:45:11.453Z,20.70
2018-12-16T15:47:41.141Z,20.70
2018-12-16T15:50:11.135Z,20.70
2018-12-16T15:52:40.858Z,20.70
2018-12-16T15:55:11.554Z,20.70
2018-12-16T15:57:40.886Z,20.70
2018-12-16T16:00:10.193Z,20.70
2018-12-16T16:02:39.518Z,20.70
2018-12-16T16:05:08.811Z,20.70
2018-12-16T16:07:38.146Z,20.70
2018-12-16T16:10:08.585Z,20.60
2018-12-16T16:12:37.819Z,20.70
2018-12-16T16:15:07.826Z,20.60
2018-12-16T16:17:37.137Z,20.60
2018-12-16T16:20:06.455Z,20.60
2018-12-16T16:22:35.661Z,20.60
2018-12-16T16:25:04.997Z,20.60
2018-12-16T16:27:34.283Z,20.60
2018-12-16T16:30:03.517Z,20.60
2018-12-16T16:32:32.692Z,20.60
2018-12-16T16:35:01.935Z,20.60
2018-12-16T16:37:32.677Z,20.50
2018-12-16T16:40:02.065Z,20.60
2018-12-16T16:42:31.386Z,20.50
2018-12-16T16:45:00.602Z,20.50
2018-12-16T16:47:29.945Z,20.50
2018-12-16T16:49:59.307Z,20.50
2018-12-16T16:52:28.594Z,20.50
2018-12-16T16:54:57.924Z,20.50
2018-12-16T16:57:27.376Z,20.50
2018-12-16T16:59:56.678Z,20.50
2018-12-16T17:02:25.979Z,20.50
2018-12-16T17:04:55.322Z,20.50
2018-12-16T17:07:24.698Z,20.50
2018-12-16T17:09:53.910Z,20.50
2018-12-16T17:12:23.192Z,20.50
2018-12-16T17:14:52.425Z,20.50
2018-12-16T17:17:21.774Z,20.50
2018-12-16T17:19:51.124Z,20.50
2018-12-16T17:22:20.426Z,20.50
2018-12-16T17:24:49.723Z,20.50
2018-12-16T17:27:19.178Z,20.50
2018-12-16T17:29:48.410Z,20.50
2018-12-16T17:32:17.664Z,20.60
2018-12-16T17:34:46.849Z,20.60
2018-12-16T17:37:16.213Z,20.60
2018-12-16T17:39:45.496Z,20.60
2018-12-16T17:42:14.818Z,20.70
2018-12-16T17:44:44.006Z,20.70
2018-12-16T17:47:13.231Z,20.70
2018-12-16T17:49:42.492Z,20.70
2018-12-16T17:52:11.739Z,20.70
2018-12-16T17:54:40.987Z,20.70
2018-12-16T17:57:10.291Z,20.80
2018-12-16T17:59:39.728Z,20.80
2018-12-16T18:02:09.008Z,20.80
2018-12-16T18:04:39.243Z,20.80
2018-12-16T18:07:08.432Z,20.90
2018-12-16T18:09:37.738Z,20.90
2018-12-16T18:12:06.995Z,20.90
2018-12-16T18:14:36.189Z,20.90
2018-12-16T18:17:06.735Z,20.90
2018-12-16T18:19:36.032Z,20.90
2018-12-16T18:22:05.340Z,20.90
2018-12-16T18:24:34.594Z,20.90
2018-12-16T18:27:03.939Z,20.90
2018-12-16T18:29:33.195Z,20.90
2018-12-16T18:32:02.659Z,20.90
2018-12-16T18:34:31.846Z,20.90
2018-12-16T18:37:01.116Z,21.00
2018-12-16T18:39:30.352Z,21.00
2018-12-16T18:41:59.818Z,21.00
2018-12-16T18:44:29.218Z,20.90
2018-12-16T18:46:58.757Z,21.00
2018-12-16T18:49:29.000Z,20.90
2018-12-16T18:51:58.445Z,20.90
2018-12-16T18:54:28.278Z,20.90
2018-12-16T18:56:57.621Z,20.90
2018-12-16T18:59:27.082Z,20.90
2018-12-16T19:01:56.455Z,20.90
2018-12-16T19:04:25.700Z,20.90
2018-12-16T19:06:55.050Z,20.90
2018-12-16T19:09:24.890Z,20.90
2018-12-16T19:11:54.227Z,20.90
2018-12-16T19:14:24.106Z,20.90
2018-12-16T19:16:53.712Z,20.90
2018-12-16T19:19:23.413Z,20.90
2018-12-16T19:21:52.972Z,20.90
2018-12-16T19:24:22.486Z,20.90
2018-12-16T19:26:57.955Z,20.90
2018-12-16T19:29:23.918Z,21.00
2018-12-16T19:31:53.423Z,21.00
2018-12-16T19:34:22.860Z,21.00
2018-12-16T19:36:52.259Z,21.00
2018-12-16T19:39:21.766Z,21.00
2018-12-16T19:41:51.546Z,21.00
2018-12-16T19:44:21.151Z,21.00
2018-12-16T19:46:50.592Z,21.00
2018-12-16T19:49:20.142Z,21.00
2018-12-16T19:51:49.574Z,21.00
2018-12-16T19:54:19.540Z,21.00
2018-12-16T19:56:48.926Z,21.10
2018-12-16T19:59:18.571Z,21.10
2018-12-16T20:01:48.031Z,21.00
2018-12-16T20:04:17.492Z,21.00
2018-12-16T20:06:47.655Z,21.00
2018-12-16T20:09:17.483Z,21.00
2018-12-16T20:11:46.946Z,21.00
2018-12-16T20:14:16.597Z,21.00
2018-12-16T20:16:46.133Z,21.00
2018-12-16T20:19:15.748Z,21.10
2018-12-16T20:21:45.191Z,21.10
2018-12-16T20:24:14.608Z,21.00
2018-12-16T20:26:44.153Z,21.10
2018-12-16T20:29:13.692Z,21.10
2018-12-16T20:31:43.215Z,21.10
2018-12-16T20:34:13.728Z,21.10
2018-12-16T20:36:43.111Z,21.10
2018-12-16T20:39:12.878Z,21.00
2018-12-16T20:41:42.389Z,21.00
2018-12-16T20:44:11.765Z,21.00
2018-12-16T20:46:41.441Z,21.00
2018-12-16T20:49:10.803Z,21.00
2018-12-16T20:51:40.240Z,21.00
2018-12-16T20:54:09.632Z,21.00
2018-12-16T20:56:38.959Z,21.00
2018-12-16T20:59:08.380Z,21.00
2018-12-16T21:01:37.778Z,21.00
2018-12-16T21:04:07.319Z,21.00
2018-12-16T21:06:36.802Z,21.00
2018-12-16T21:09:07.751Z,21.00
2018-12-16T21:11:42.185Z,20.90
2018-12-16T21:14:16.582Z,20.90
2018-12-16T21:16:50.856Z,20.90
2018-12-16T21:19:21.702Z,20.90
2018-12-16T21:21:51.426Z,20.90
2018-12-16T21:24:21.119Z,20.90
2018-12-16T21:26:50.582Z,20.90
2018-12-16T21:29:20.218Z,20.90
2018-12-16T21:31:49.871Z,20.90
2018-12-16T21:34:19.522Z,20.90
2018-12-16T21:36:49.276Z,20.90
2018-12-16T21:39:19.035Z,20.80
2018-12-16T21:41:48.823Z,20.80
2018-12-16T21:44:18.544Z,20.80
2018-12-16T21:46:48.176Z,20.80
2018-12-16T21:49:18.174Z,20.80
2018-12-16T21:51:47.724Z,20.80
2018-12-16T21:54:17.541Z,20.80
2018-12-16T21:56:47.371Z,20.80
2018-12-16T21:59:17.504Z,20.80
2018-12-16T22:01:47.376Z,20.80
2018-12-16T22:04:17.087Z,20.70
2018-12-16T22:06:46.909Z,20.70
2018-12-16T22:09:16.910Z,20.70
2018-12-16T22:11:46.557Z,20.70
2018-12-16T22:14:16.326Z,20.70
2018-12-16T22:16:46.494Z,20.70
2018-12-16T22:19:16.395Z,20.70
2018-12-16T22:21:46.396Z,20.70
2018-12-16T22:24:16.156Z,20.70
2018-12-16T22:26:46.173Z,20.70
2018-12-16T22:29:15.656Z,20.70
2018-12-16T22:31:44.994Z,20.70
2018-12-16T22:34:14.565Z,20.70
2018-12-16T22:36:43.963Z,20.70
2018-12-16T22:39:13.486Z,20.60
2018-12-16T22:41:42.802Z,20.60
2018-12-16T22:44:12.434Z,20.60
2018-12-16T22:46:41.814Z,20.60
2018-12-16T22:49:11.300Z,20.60
2018-12-16T22:51:40.652Z,20.60
2018-12-16T22:54:10.132Z,20.60
2018-12-16T22:56:39.653Z,20.60
2018-12-16T22:59:09.083Z,20.60
2018-12-16T23:01:38.439Z,20.60
2018-12-16T23:04:08.255Z,20.60
2018-12-16T23:06:38.192Z,20.60
2018-12-16T23:09:08.735Z,20.60
2018-12-16T23:11:38.703Z,20.50
2018-12-16T23:14:08.350Z,20.60
2018-12-16T23:16:38.050Z,20.50
2018-12-16T23:19:07.973Z,20.50
2018-12-16T23:21:37.741Z,20.50
2018-12-16T23:24:07.617Z,20.50
2018-12-16T23:26:37.496Z,20.50
2018-12-16T23:29:07.316Z,20.50
2018-12-16T23:31:37.129Z,20.50
2018-12-16T23:34:06.953Z,20.50
2018-12-16T23:36:36.724Z,20.50
2018-12-16T23:39:07.161Z,20.50
2018-12-16T23:41:36.861Z,20.50
2018-12-16T23:44:06.520Z,20.50
2018-12-16T23:46:36.220Z,20.50
2018-12-16T23:49:06.038Z,20.50
2018-12-16T23:51:35.759Z,20.50
2018-12-16T23:54:05.734Z,20.50
2018-12-16T23:56:35.367Z,20.40
2018-12-16T23:59:05.273Z,20.40
